^^
Meteo Knjazevac Station Historical Data
Daily Summary for December 10, 2019 Units:  English    Metric   Both
Daily Weekly Monthly Yearly Custom
  High: Low: Average:
Temperature: 34 °F 30.7 °F 32.4 °F
Dew Point: 32.8 °F 29.9 °F 31.4 °F
Humidity: 98% 94% 96%
Wind Speed: 5mph 0mph 1.5mph
Wind Gust: 10mph - -
Wind- - SW
Pressure: 29.84 in 29.82 in -
Precipitation: 0.00 in    
Historical Graphs
 
 
Tabular Data for December 10, 2019
Time Temperature Dew Point Pressure Wind Wind Speed Wind Gust Humidity Rainfall Rate (Hourly) solar Conditions
00:00 34 °F 32.7 °F 29.82 in Calm   4 mph 95% 0.00 in 0 W/m2
00:10 33.6 °F 32 °F 29.82 in West 2 mph 4 mph 94% 0.00 in 0 W/m2
00:20 32.9 °F 31.4 °F 29.82 in West 5 mph 7 mph 94% 0.00 in 0 W/m2
00:30 33.1 °F 32.1 °F 29.82 in West 3 mph 6 mph 96% 0.00 in 0 W/m2
00:40 33.1 °F 32.1 °F 29.82 in West 3 mph 5 mph 96% 0.00 in 0 W/m2
00:50 33.1 °F 32.1 °F 29.82 in West 3 mph 6 mph 96% 0.00 in 0 W/m2
01:00 33.3 °F 32.8 °F 29.82 in NW 1 mph 6 mph 98% 0.00 in 0 W/m2
01:10 33.3 °F 32.2 °F 29.83 in NNE 3 mph 6 mph 96% 0.00 in 0 W/m2
01:20 33.3 °F 32.8 °F 29.83 in NNE 5 mph 10 mph 98% 0.00 in 0 W/m2
01:30 32.9 °F 31.9 °F 29.83 in Calm   8 mph 96% 0.00 in 0 W/m2
01:40 32.4 °F 31.1 °F 29.83 in Calm   6 mph 95% 0.00 in 0 W/m2
01:50 32 °F 30.7 °F 29.83 in Calm   2 mph 95% 0.00 in 0 W/m2
02:00 31.8 °F 30.6 °F 29.83 in Calm   2 mph 95% 0.00 in 0 W/m2
02:10 31.6 °F 30.6 °F 29.84 in West 1 mph 2 mph 96% 0.00 in 0 W/m2
02:20 31.5 °F 30.5 °F 29.83 in Calm   3 mph 96% 0.00 in 0 W/m2
02:30 31.6 °F 31.1 °F 29.84 in Calm   3 mph 98% 0.00 in 0 W/m2
02:40 31.6 °F 31.1 °F 29.83 in Calm   2 mph 98% 0.00 in 0 W/m2
02:50 31.3 °F 30.8 °F 29.83 in Calm   3 mph 98% 0.00 in 0 W/m2
03:00 30.9 °F 29.9 °F 29.83 in West 2 mph 3 mph 96% 0.00 in 0 W/m2
03:10 30.7 °F 30.2 °F 29.82 in WNW 2 mph 4 mph 98% 0.00 in 0 W/m2
Knjazevac, Serbia
Compliments of Weather Underground - 2 mb